METAR

TAF

 




Rio de Janeiro / Galeão - Antonio Carlos Jobim, RJ - SBGL


28 de Julho de 2014 às 18:15 (UTC)


Tempo:

Céu nublado, com chuvisco

Temperatura:

20ºC

Umidade Relativa:

68%

Localização:
Ajuste do Altímetro:

1028 hPa

Visibilidade Horizontal Predominante:

3000 m

Direção e Velocidade do Vento:

200° 11,11 Km/h


Observação Meteorológica:

SPECI SBGL 281815Z 20006KT 3000 -DZ FEW005 BKN010 OVC030 20/14 Q1028=